Pagina principale
METAR-TAF:

METAR-TAF

Aeroporti :

Saskatoon, Saskatchewan, Canada

latitudine: 52-10N, longitudine: 106-41W, altezza: 501 m

Osservazione

Il bollettino è stato emesso 41 minuti fa, alle 17:00 UTC
Vento 14 kt da sud con raffiche fino a 19 kt
Temperature 9°C
Umidità 43%
Pressione 1027 hPa
Visibilità: 24.1 km
Poco nuvoloso ad un'altezza di 10000 ft

METAR: CYXE 191700Z 19014G19KT 15SM FEW100 09/M03 A3032 RMK AC2 SLP292

Ora: 11:41 (17:41 UTC)

Previsione

Il bollettino è stato emesso 6 ore e 3 minuti fa, alle 11:38 UTC
Previsione valida dal 19 alle 12 UTC al 20 alle 12 UTC
Vento 5 kt da sud/sud-ovest
Visibilità: 10 km
Nubi sparse ad un'altezza di 8000 ft
A partire da 19 alle 1700 UTC
Vento 10 kt da sud/sud-est
Visibilità: 10 km
Cielo sereno

TAF: CYXE 191138Z 1912/2012 20005KT P6SM SCT080 FM191700 15010KT P6SM SKC RMK NXT FCST BY 191800Z

Osservazioni e previsioni meteorologiche di più di 4000 aeroporti (messaggi METAR e TAF).

Le stazioni disponibili sono rappresentate dai dischi gialli e rossi sulla carta.

Puntare il mouse per vedere il nome della stazione.

Clicca sopra per visualizzare le osservazioni e previsioni meteorologiche.

Per cambiare la mappa : fare clic sui pulsanti verdi con una croce nera per ingrandire, il pulsante verde con un trattino per diminuire, o sulla freccia verde per le mappe adiacenti.


METAR-TAF: